sensor_id;sensor_type;location;lat;lon;timestamp;temperature;humidity
9043;DHT22;4556;49.150;8.808;2022-07-23T00:01:27;20.50;99.90
9043;DHT22;4556;49.150;8.808;2022-07-23T00:03:54;20.60;99.90
9043;DHT22;4556;49.150;8.808;2022-07-23T00:06:24;20.80;99.90
9043;DHT22;4556;49.150;8.808;2022-07-23T00:08:51;21.10;99.90
9043;DHT22;4556;49.150;8.808;2022-07-23T00:11:19;20.80;99.90
9043;DHT22;4556;49.150;8.808;2022-07-23T00:13:47;20.80;99.90
9043;DHT22;4556;49.150;8.808;2022-07-23T00:16:15;20.70;99.90
9043;DHT22;4556;49.150;8.808;2022-07-23T00:18:42;20.90;99.90
9043;DHT22;4556;49.150;8.808;2022-07-23T00:21:09;21.00;99.90
9043;DHT22;4556;49.150;8.808;2022-07-23T00:23:37;21.00;99.90
9043;DHT22;4556;49.150;8.808;2022-07-23T00:26:05;20.60;99.90
9043;DHT22;4556;49.150;8.808;2022-07-23T00:28:33;20.50;99.90
9043;DHT22;4556;49.150;8.808;2022-07-23T00:31:00;20.60;99.90
9043;DHT22;4556;49.150;8.808;2022-07-23T00:33:27;20.60;99.90
9043;DHT22;4556;49.150;8.808;2022-07-23T00:35:54;20.70;99.90
9043;DHT22;4556;49.150;8.808;2022-07-23T00:38:21;20.60;99.90
9043;DHT22;4556;49.150;8.808;2022-07-23T00:40:50;20.60;99.90
9043;DHT22;4556;49.150;8.808;2022-07-23T00:43:19;20.60;99.90
9043;DHT22;4556;49.150;8.808;2022-07-23T00:45:46;20.50;99.90
9043;DHT22;4556;49.150;8.808;2022-07-23T00:48:13;20.50;99.90
9043;DHT22;4556;49.150;8.808;2022-07-23T00:50:40;20.50;99.90
9043;DHT22;4556;49.150;8.808;2022-07-23T00:53:07;20.60;99.90
9043;DHT22;4556;49.150;8.808;2022-07-23T00:55:35;20.70;99.90
9043;DHT22;4556;49.150;8.808;2022-07-23T00:58:04;20.80;99.90
9043;DHT22;4556;49.150;8.808;2022-07-23T01:00:31;20.70;99.90
9043;DHT22;4556;49.150;8.808;2022-07-23T01:02:58;20.80;99.90
9043;DHT22;4556;49.150;8.808;2022-07-23T01:05:26;20.90;99.90
9043;DHT22;4556;49.150;8.808;2022-07-23T01:07:53;19.70;99.90
9043;DHT22;4556;49.150;8.808;2022-07-23T01:13:01;21.20;99.90
9043;DHT22;4556;49.150;8.808;2022-07-23T01:15:30;21.30;99.90
9043;DHT22;4556;49.150;8.808;2022-07-23T01:17:58;21.40;99.90
9043;DHT22;4556;49.150;8.808;2022-07-23T01:20:25;21.50;99.90
9043;DHT22;4556;49.150;8.808;2022-07-23T01:22:53;21.30;99.90
9043;DHT22;4556;49.150;8.808;2022-07-23T01:25:21;21.30;99.90
9043;DHT22;4556;49.150;8.808;2022-07-23T01:27:48;21.20;99.90
9043;DHT22;4556;49.150;8.808;2022-07-23T01:30:15;21.20;99.90
9043;DHT22;4556;49.150;8.808;2022-07-23T01:35:10;21.30;99.90
9043;DHT22;4556;49.150;8.808;2022-07-23T01:37:37;21.40;99.90
9043;DHT22;4556;49.150;8.808;2022-07-23T01:40:07;21.40;99.90
9043;DHT22;4556;49.150;8.808;2022-07-23T01:42:34;21.40;99.90
9043;DHT22;4556;49.150;8.808;2022-07-23T01:45:03;21.40;99.90
9043;DHT22;4556;49.150;8.808;2022-07-23T01:47:30;21.60;99.90
9043;DHT22;4556;49.150;8.808;2022-07-23T01:49:57;21.50;99.90
9043;DHT22;4556;49.150;8.808;2022-07-23T01:52:24;21.50;99.90
9043;DHT22;4556;49.150;8.808;2022-07-23T01:54:52;21.50;99.90
9043;DHT22;4556;49.150;8.808;2022-07-23T01:57:20;21.50;99.90
9043;DHT22;4556;49.150;8.808;2022-07-23T01:59:47;21.40;99.90
9043;DHT22;4556;49.150;8.808;2022-07-23T02:02:14;21.30;99.90
9043;DHT22;4556;49.150;8.808;2022-07-23T02:04:41;21.20;99.90
9043;DHT22;4556;49.150;8.808;2022-07-23T02:07:08;21.00;99.90
9043;DHT22;4556;49.150;8.808;2022-07-23T02:09:35;21.00;99.90
9043;DHT22;4556;49.150;8.808;2022-07-23T02:12:03;21.00;99.90
9043;DHT22;4556;49.150;8.808;2022-07-23T02:14:31;21.00;99.90
9043;DHT22;4556;49.150;8.808;2022-07-23T02:16:58;21.00;99.90
9043;DHT22;4556;49.150;8.808;2022-07-23T02:19:25;20.80;99.90
9043;DHT22;4556;49.150;8.808;2022-07-23T02:21:52;20.80;99.90
9043;DHT22;4556;49.150;8.808;2022-07-23T02:24:20;20.80;99.90
9043;DHT22;4556;49.150;8.808;2022-07-23T02:26:47;20.20;99.90
9043;DHT22;4556;49.150;8.808;2022-07-23T02:29:14;21.20;99.90
9043;DHT22;4556;49.150;8.808;2022-07-23T02:31:43;20.70;99.90
9043;DHT22;4556;49.150;8.808;2022-07-23T02:34:10;20.70;99.90
9043;DHT22;4556;49.150;8.808;2022-07-23T02:36:37;20.50;99.90
9043;DHT22;4556;49.150;8.808;2022-07-23T02:39:05;20.40;99.90
9043;DHT22;4556;49.150;8.808;2022-07-23T02:41:32;20.30;99.90
9043;DHT22;4556;49.150;8.808;2022-07-23T02:43:59;20.50;99.90
9043;DHT22;4556;49.150;8.808;2022-07-23T02:46:26;20.20;99.90
9043;DHT22;4556;49.150;8.808;2022-07-23T02:48:57;20.20;99.90
9043;DHT22;4556;49.150;8.808;2022-07-23T02:51:24;20.10;99.90
9043;DHT22;4556;49.150;8.808;2022-07-23T02:53:51;20.10;99.90
9043;DHT22;4556;49.150;8.808;2022-07-23T02:56:18;20.40;99.90
9043;DHT22;4556;49.150;8.808;2022-07-23T02:58:45;20.10;99.90
9043;DHT22;4556;49.150;8.808;2022-07-23T03:01:12;20.20;99.90
9043;DHT22;4556;49.150;8.808;2022-07-23T03:03:39;20.20;99.90
9043;DHT22;4556;49.150;8.808;2022-07-23T03:06:08;20.00;99.90
9043;DHT22;4556;49.150;8.808;2022-07-23T03:08:35;20.00;99.90
9043;DHT22;4556;49.150;8.808;2022-07-23T03:11:02;20.00;99.90
9043;DHT22;4556;49.150;8.808;2022-07-23T03:13:29;20.00;99.90
9043;DHT22;4556;49.150;8.808;2022-07-23T03:15:56;20.10;99.90
9043;DHT22;4556;49.150;8.808;2022-07-23T03:18:23;20.20;99.90
9043;DHT22;4556;49.150;8.808;2022-07-23T03:20:50;20.00;99.90
9043;DHT22;4556;49.150;8.808;2022-07-23T03:23:19;20.00;99.90
9043;DHT22;4556;49.150;8.808;2022-07-23T03:25:46;20.00;99.90
9043;DHT22;4556;49.150;8.808;2022-07-23T03:28:13;20.00;99.90
9043;DHT22;4556;49.150;8.808;2022-07-23T03:30:41;19.90;99.90
9043;DHT22;4556;49.150;8.808;2022-07-23T03:33:08;20.00;99.90
9043;DHT22;4556;49.150;8.808;2022-07-23T03:35:35;20.10;99.90
9043;DHT22;4556;49.150;8.808;2022-07-23T03:38:02;20.10;99.90
9043;DHT22;4556;49.150;8.808;2022-07-23T03:40:31;19.90;99.90
9043;DHT22;4556;49.150;8.808;2022-07-23T03:42:58;19.80;99.90
9043;DHT22;4556;49.150;8.808;2022-07-23T03:45:25;19.80;99.90
9043;DHT22;4556;49.150;8.808;2022-07-23T03:47:52;19.70;99.90
9043;DHT22;4556;49.150;8.808;2022-07-23T03:50:19;21.10;99.90
9043;DHT22;4556;49.150;8.808;2022-07-23T03:52:47;19.80;99.90
9043;DHT22;4556;49.150;8.808;2022-07-23T03:55:14;19.80;99.90
9043;DHT22;4556;49.150;8.808;2022-07-23T03:57:43;19.80;99.90
9043;DHT22;4556;49.150;8.808;2022-07-23T04:00:11;20.00;99.90
9043;DHT22;4556;49.150;8.808;2022-07-23T04:02:39;19.50;99.90
9043;DHT22;4556;49.150;8.808;2022-07-23T04:05:07;19.30;99.90
9043;DHT22;4556;49.150;8.808;2022-07-23T04:07:34;19.30;99.90
9043;DHT22;4556;49.150;8.808;2022-07-23T04:10:01;19.50;99.90
9043;DHT22;4556;49.150;8.808;2022-07-23T04:12:28;19.50;99.90
9043;DHT22;4556;49.150;8.808;2022-07-23T04:14:57;19.30;99.90
9043;DHT22;4556;49.150;8.808;2022-07-23T04:17:24;19.20;99.90
9043;DHT22;4556;49.150;8.808;2022-07-23T04:19:51;19.10;99.90
9043;DHT22;4556;49.150;8.808;2022-07-23T04:22:18;19.20;99.90
9043;DHT22;4556;49.150;8.808;2022-07-23T04:24:46;19.00;99.90
9043;DHT22;4556;49.150;8.808;2022-07-23T04:27:14;19.00;99.90
9043;DHT22;4556;49.150;8.808;2022-07-23T04:29:41;19.40;99.90
9043;DHT22;4556;49.150;8.808;2022-07-23T04:32:10;19.30;99.90
9043;DHT22;4556;49.150;8.808;2022-07-23T04:34:37;19.40;99.90
9043;DHT22;4556;49.150;8.808;2022-07-23T04:37:04;19.70;99.90
9043;DHT22;4556;49.150;8.808;2022-07-23T04:39:31;19.50;99.90
9043;DHT22;4556;49.150;8.808;2022-07-23T04:41:58;20.00;99.90
9043;DHT22;4556;49.150;8.808;2022-07-23T04:44:25;19.60;99.90
9043;DHT22;4556;49.150;8.808;2022-07-23T04:46:53;19.60;99.90
9043;DHT22;4556;49.150;8.808;2022-07-23T04:49:21;19.60;99.90
9043;DHT22;4556;49.150;8.808;2022-07-23T04:51:48;19.60;99.90
9043;DHT22;4556;49.150;8.808;2022-07-23T04:54:17;19.70;99.90
9043;DHT22;4556;49.150;8.808;2022-07-23T04:56:44;19.70;99.90
9043;DHT22;4556;49.150;8.808;2022-07-23T04:59:12;19.80;99.90
9043;DHT22;4556;49.150;8.808;2022-07-23T05:01:39;19.80;99.90
9043;DHT22;4556;49.150;8.808;2022-07-23T05:04:07;19.90;99.90
9043;DHT22;4556;49.150;8.808;2022-07-23T05:06:36;20.00;99.90
9043;DHT22;4556;49.150;8.808;2022-07-23T05:09:03;20.10;99.90
9043;DHT22;4556;49.150;8.808;2022-07-23T05:11:29;19.90;99.90
9043;DHT22;4556;49.150;8.808;2022-07-23T05:13:56;19.90;99.90
9043;DHT22;4556;49.150;8.808;2022-07-23T05:16:23;20.10;99.90
9043;DHT22;4556;49.150;8.808;2022-07-23T05:18:51;20.10;99.90
9043;DHT22;4556;49.150;8.808;2022-07-23T05:21:19;20.20;99.90
9043;DHT22;4556;49.150;8.808;2022-07-23T05:23:48;22.10;99.90
9043;DHT22;4556;49.150;8.808;2022-07-23T05:26:15;20.20;99.90
9043;DHT22;4556;49.150;8.808;2022-07-23T05:28:42;20.30;99.90
9043;DHT22;4556;49.150;8.808;2022-07-23T05:31:09;20.30;99.90
9043;DHT22;4556;49.150;8.808;2022-07-23T05:33:36;20.40;99.90
9043;DHT22;4556;49.150;8.808;2022-07-23T05:36:04;20.30;99.90
9043;DHT22;4556;49.150;8.808;2022-07-23T05:38:32;20.30;99.90
9043;DHT22;4556;49.150;8.808;2022-07-23T05:41:01;20.20;99.90
9043;DHT22;4556;49.150;8.808;2022-07-23T05:43:28;20.20;99.90
9043;DHT22;4556;49.150;8.808;2022-07-23T05:45:55;20.20;99.90
9043;DHT22;4556;49.150;8.808;2022-07-23T05:48:22;20.00;99.90
9043;DHT22;4556;49.150;8.808;2022-07-23T05:50:49;22.10;99.90
9043;DHT22;4556;49.150;8.808;2022-07-23T05:53:16;20.00;99.90
9043;DHT22;4556;49.150;8.808;2022-07-23T05:55:43;20.70;99.90
9043;DHT22;4556;49.150;8.808;2022-07-23T05:58:11;19.90;99.90
9043;DHT22;4556;49.150;8.808;2022-07-23T06:00:38;19.90;99.90
9043;DHT22;4556;49.150;8.808;2022-07-23T06:03:05;20.00;99.90
9043;DHT22;4556;49.150;8.808;2022-07-23T06:05:32;19.90;99.90
9043;DHT22;4556;49.150;8.808;2022-07-23T06:07:59;19.80;99.90
9043;DHT22;4556;49.150;8.808;2022-07-23T06:10:26;20.00;99.90
9043;DHT22;4556;49.150;8.808;2022-07-23T06:12:53;20.00;99.90
9043;DHT22;4556;49.150;8.808;2022-07-23T06:15:22;20.10;99.90
9043;DHT22;4556;49.150;8.808;2022-07-23T06:17:49;20.20;99.90
9043;DHT22;4556;49.150;8.808;2022-07-23T06:20:16;20.40;99.90
9043;DHT22;4556;49.150;8.808;2022-07-23T06:22:46;20.50;99.90
9043;DHT22;4556;49.150;8.808;2022-07-23T06:25:14;20.60;99.90
9043;DHT22;4556;49.150;8.808;2022-07-23T06:27:41;20.50;99.90
9043;DHT22;4556;49.150;8.808;2022-07-23T06:30:10;20.40;99.90
9043;DHT22;4556;49.150;8.808;2022-07-23T06:32:39;20.40;99.90
9043;DHT22;4556;49.150;8.808;2022-07-23T06:35:07;20.30;99.90
9043;DHT22;4556;49.150;8.808;2022-07-23T06:37:34;20.50;99.90
9043;DHT22;4556;49.150;8.808;2022-07-23T06:40:01;20.20;99.90
9043;DHT22;4556;49.150;8.808;2022-07-23T06:42:28;20.30;99.90
9043;DHT22;4556;49.150;8.808;2022-07-23T06:44:55;20.30;99.90
9043;DHT22;4556;49.150;8.808;2022-07-23T06:47:22;20.30;99.90
9043;DHT22;4556;49.150;8.808;2022-07-23T06:49:50;20.30;99.90
9043;DHT22;4556;49.150;8.808;2022-07-23T06:52:17;20.30;99.90
9043;DHT22;4556;49.150;8.808;2022-07-23T06:54:44;20.50;99.90
9043;DHT22;4556;49.150;8.808;2022-07-23T06:57:12;20.60;99.90
9043;DHT22;4556;49.150;8.808;2022-07-23T06:59:39;20.60;99.90
9043;DHT22;4556;49.150;8.808;2022-07-23T07:02:06;20.80;99.90
9043;DHT22;4556;49.150;8.808;2022-07-23T07:04:34;20.70;99.90
9043;DHT22;4556;49.150;8.808;2022-07-23T07:07:02;20.80;99.90
9043;DHT22;4556;49.150;8.808;2022-07-23T07:09:30;20.80;99.90
9043;DHT22;4556;49.150;8.808;2022-07-23T07:11:57;21.20;99.90
9043;DHT22;4556;49.150;8.808;2022-07-23T07:14:23;21.50;99.90
9043;DHT22;4556;49.150;8.808;2022-07-23T07:16:51;21.60;99.90
9043;DHT22;4556;49.150;8.808;2022-07-23T07:19:19;21.60;99.90
9043;DHT22;4556;49.150;8.808;2022-07-23T07:21:46;21.50;99.90
9043;DHT22;4556;49.150;8.808;2022-07-23T07:24:14;21.50;99.90
9043;DHT22;4556;49.150;8.808;2022-07-23T07:26:41;21.50;99.90
9043;DHT22;4556;49.150;8.808;2022-07-23T07:29:08;21.50;99.90
9043;DHT22;4556;49.150;8.808;2022-07-23T07:31:35;21.50;99.90
9043;DHT22;4556;49.150;8.808;2022-07-23T07:34:02;21.60;99.90
9043;DHT22;4556;49.150;8.808;2022-07-23T07:36:30;21.70;99.90
9043;DHT22;4556;49.150;8.808;2022-07-23T07:38:58;22.00;99.90
9043;DHT22;4556;49.150;8.808;2022-07-23T07:41:26;22.20;99.90
9043;DHT22;4556;49.150;8.808;2022-07-23T07:43:53;22.40;99.90
9043;DHT22;4556;49.150;8.808;2022-07-23T07:46:21;22.50;99.90
9043;DHT22;4556;49.150;8.808;2022-07-23T07:48:49;22.60;99.90
9043;DHT22;4556;49.150;8.808;2022-07-23T07:51:16;22.60;99.90
9043;DHT22;4556;49.150;8.808;2022-07-23T07:53:43;22.60;99.90
9043;DHT22;4556;49.150;8.808;2022-07-23T07:56:10;22.60;99.90
9043;DHT22;4556;49.150;8.808;2022-07-23T07:58:40;22.40;99.90
9043;DHT22;4556;49.150;8.808;2022-07-23T08:01:07;22.30;99.90
9043;DHT22;4556;49.150;8.808;2022-07-23T08:03:34;21.70;99.90
9043;DHT22;4556;49.150;8.808;2022-07-23T08:06:01;22.30;99.90
9043;DHT22;4556;49.150;8.808;2022-07-23T08:08:29;22.80;99.90
9043;DHT22;4556;49.150;8.808;2022-07-23T08:10:57;22.30;99.90
9043;DHT22;4556;49.150;8.808;2022-07-23T08:13:24;22.40;99.90
9043;DHT22;4556;49.150;8.808;2022-07-23T08:15:52;22.40;99.90
9043;DHT22;4556;49.150;8.808;2022-07-23T08:18:19;22.40;99.90
9043;DHT22;4556;49.150;8.808;2022-07-23T08:20:47;22.50;99.90
9043;DHT22;4556;49.150;8.808;2022-07-23T08:23:17;22.70;99.90
9043;DHT22;4556;49.150;8.808;2022-07-23T08:25:45;23.00;99.90
9043;DHT22;4556;49.150;8.808;2022-07-23T08:28:14;23.40;99.90
9043;DHT22;4556;49.150;8.808;2022-07-23T08:30:42;23.70;99.90
9043;DHT22;4556;49.150;8.808;2022-07-23T08:33:12;24.10;99.90
9043;DHT22;4556;49.150;8.808;2022-07-23T08:35:41;24.30;99.90
9043;DHT22;4556;49.150;8.808;2022-07-23T08:38:10;24.50;99.90
9043;DHT22;4556;49.150;8.808;2022-07-23T08:40:40;24.70;99.90
9043;DHT22;4556;49.150;8.808;2022-07-23T08:43:09;24.80;99.90
9043;DHT22;4556;49.150;8.808;2022-07-23T08:45:37;24.90;99.90
9043;DHT22;4556;49.150;8.808;2022-07-23T08:48:07;25.10;99.90
9043;DHT22;4556;49.150;8.808;2022-07-23T08:50:36;25.30;99.90
9043;DHT22;4556;49.150;8.808;2022-07-23T08:53:06;25.50;99.90
9043;DHT22;4556;49.150;8.808;2022-07-23T08:55:34;25.60;99.90
9043;DHT22;4556;49.150;8.808;2022-07-23T08:58:01;25.50;99.90
9043;DHT22;4556;49.150;8.808;2022-07-23T09:00:29;25.60;99.90
9043;DHT22;4556;49.150;8.808;2022-07-23T09:02:56;25.70;99.90
9043;DHT22;4556;49.150;8.808;2022-07-23T09:05:23;25.80;99.90
9043;DHT22;4556;49.150;8.808;2022-07-23T09:08:21;25.80;99.90
9043;DHT22;4556;49.150;8.808;2022-07-23T09:10:52;25.80;99.90
9043;DHT22;4556;49.150;8.808;2022-07-23T09:13:32;25.90;99.90
9043;DHT22;4556;49.150;8.808;2022-07-23T09:16:02;26.10;99.90
9043;DHT22;4556;49.150;8.808;2022-07-23T09:18:31;26.30;99.90
9043;DHT22;4556;49.150;8.808;2022-07-23T09:21:17;26.50;99.90
9043;DHT22;4556;49.150;8.808;2022-07-23T09:23:49;26.70;99.90
9043;DHT22;4556;49.150;8.808;2022-07-23T09:26:25;26.80;99.90
9043;DHT22;4556;49.150;8.808;2022-07-23T09:28:54;26.90;99.90
9043;DHT22;4556;49.150;8.808;2022-07-23T09:31:23;26.90;99.90
9043;DHT22;4556;49.150;8.808;2022-07-23T09:33:51;27.00;99.90
9043;DHT22;4556;49.150;8.808;2022-07-23T09:36:27;26.90;99.90
9043;DHT22;4556;49.150;8.808;2022-07-23T09:38:57;27.10;99.90
9043;DHT22;4556;49.150;8.808;2022-07-23T09:41:24;27.30;99.90
9043;DHT22;4556;49.150;8.808;2022-07-23T09:44:07;27.30;99.90
9043;DHT22;4556;49.150;8.808;2022-07-23T09:46:35;27.40;99.90
9043;DHT22;4556;49.150;8.808;2022-07-23T09:49:11;27.30;99.90
9043;DHT22;4556;49.150;8.808;2022-07-23T09:51:48;27.50;99.90
9043;DHT22;4556;49.150;8.808;2022-07-23T09:54:36;27.60;99.90
9043;DHT22;4556;49.150;8.808;2022-07-23T09:57:05;27.40;99.90
9043;DHT22;4556;49.150;8.808;2022-07-23T09:59:35;27.30;99.90
9043;DHT22;4556;49.150;8.808;2022-07-23T10:02:05;27.10;99.90
9043;DHT22;4556;49.150;8.808;2022-07-23T10:04:33;26.80;99.90
9043;DHT22;4556;49.150;8.808;2022-07-23T10:07:02;26.50;99.90
9043;DHT22;4556;49.150;8.808;2022-07-23T10:09:31;26.30;99.90
9043;DHT22;4556;49.150;8.808;2022-07-23T10:12:01;26.10;99.90
9043;DHT22;4556;49.150;8.808;2022-07-23T10:14:34;26.30;99.90
9043;DHT22;4556;49.150;8.808;2022-07-23T10:17:02;26.60;99.90
9043;DHT22;4556;49.150;8.808;2022-07-23T10:19:29;27.00;99.90
9043;DHT22;4556;49.150;8.808;2022-07-23T10:22:00;27.20;99.90
9043;DHT22;4556;49.150;8.808;2022-07-23T10:24:44;27.20;99.90
9043;DHT22;4556;49.150;8.808;2022-07-23T10:27:36;27.20;99.90
9043;DHT22;4556;49.150;8.808;2022-07-23T10:30:06;27.00;99.90
9043;DHT22;4556;49.150;8.808;2022-07-23T10:32:43;27.10;99.90
9043;DHT22;4556;49.150;8.808;2022-07-23T10:35:19;27.10;99.90
9043;DHT22;4556;49.150;8.808;2022-07-23T10:37:51;27.00;99.90
9043;DHT22;4556;49.150;8.808;2022-07-23T10:40:21;26.90;99.90
9043;DHT22;4556;49.150;8.808;2022-07-23T10:42:51;27.10;99.90
9043;DHT22;4556;49.150;8.808;2022-07-23T10:45:29;27.30;99.90
9043;DHT22;4556;49.150;8.808;2022-07-23T10:48:11;27.30;99.90
9043;DHT22;4556;49.150;8.808;2022-07-23T10:50:39;27.20;99.90
9043;DHT22;4556;49.150;8.808;2022-07-23T10:53:11;27.00;99.90
9043;DHT22;4556;49.150;8.808;2022-07-23T10:55:48;27.00;99.90
9043;DHT22;4556;49.150;8.808;2022-07-23T10:58:22;26.90;99.90
9043;DHT22;4556;49.150;8.808;2022-07-23T11:00:49;26.80;99.90
9043;DHT22;4556;49.150;8.808;2022-07-23T11:03:40;26.90;99.90
9043;DHT22;4556;49.150;8.808;2022-07-23T11:06:22;26.80;99.90
9043;DHT22;4556;49.150;8.808;2022-07-23T11:09:23;26.90;99.90
9043;DHT22;4556;49.150;8.808;2022-07-23T11:15:12;27.00;99.90
9043;DHT22;4556;49.150;8.808;2022-07-23T11:17:58;26.90;99.90
9043;DHT22;4556;49.150;8.808;2022-07-23T11:20:26;26.80;99.90
9043;DHT22;4556;49.150;8.808;2022-07-23T11:22:55;26.80;99.90
9043;DHT22;4556;49.150;8.808;2022-07-23T11:25:32;27.30;99.90
9043;DHT22;4556;49.150;8.808;2022-07-23T11:28:14;27.10;99.90
9043;DHT22;4556;49.150;8.808;2022-07-23T11:30:45;27.20;99.90
9043;DHT22;4556;49.150;8.808;2022-07-23T11:33:21;27.40;99.90
9043;DHT22;4556;49.150;8.808;2022-07-23T11:35:59;27.30;99.90
9043;DHT22;4556;49.150;8.808;2022-07-23T11:38:27;27.40;99.90
9043;DHT22;4556;49.150;8.808;2022-07-23T11:40:56;27.50;99.90
9043;DHT22;4556;49.150;8.808;2022-07-23T11:43:24;27.60;99.90
9043;DHT22;4556;49.150;8.808;2022-07-23T11:45:57;27.70;99.90
9043;DHT22;4556;49.150;8.808;2022-07-23T11:48:26;27.90;99.90
9043;DHT22;4556;49.150;8.808;2022-07-23T11:50:55;28.20;99.90
9043;DHT22;4556;49.150;8.808;2022-07-23T11:53:23;28.30;99.90
9043;DHT22;4556;49.150;8.808;2022-07-23T11:55:51;28.20;99.90
9043;DHT22;4556;49.150;8.808;2022-07-23T11:58:20;28.00;99.90
9043;DHT22;4556;49.150;8.808;2022-07-23T12:00:47;28.10;99.90
9043;DHT22;4556;49.150;8.808;2022-07-23T12:03:18;28.10;99.90
9043;DHT22;4556;49.150;8.808;2022-07-23T12:05:44;27.90;99.90
9043;DHT22;4556;49.150;8.808;2022-07-23T12:08:11;27.80;99.90
9043;DHT22;4556;49.150;8.808;2022-07-23T12:10:40;27.80;99.90
9043;DHT22;4556;49.150;8.808;2022-07-23T12:13:10;27.60;99.90
9043;DHT22;4556;49.150;8.808;2022-07-23T12:15:39;27.60;99.90
9043;DHT22;4556;49.150;8.808;2022-07-23T12:18:09;27.50;99.90
9043;DHT22;4556;49.150;8.808;2022-07-23T12:20:40;27.50;99.90
9043;DHT22;4556;49.150;8.808;2022-07-23T12:23:10;27.50;99.90
9043;DHT22;4556;49.150;8.808;2022-07-23T12:25:40;27.60;99.90
9043;DHT22;4556;49.150;8.808;2022-07-23T12:28:09;27.60;99.90
9043;DHT22;4556;49.150;8.808;2022-07-23T12:30:38;27.70;99.90
9043;DHT22;4556;49.150;8.808;2022-07-23T12:33:07;27.70;99.90
9043;DHT22;4556;49.150;8.808;2022-07-23T12:35:38;27.80;99.90
9043;DHT22;4556;49.150;8.808;2022-07-23T12:38:08;27.90;99.90
9043;DHT22;4556;49.150;8.808;2022-07-23T12:40:37;28.10;99.90
9043;DHT22;4556;49.150;8.808;2022-07-23T12:43:08;28.30;99.90
9043;DHT22;4556;49.150;8.808;2022-07-23T12:45:46;28.40;99.90
9043;DHT22;4556;49.150;8.808;2022-07-23T12:48:20;28.60;99.90
9043;DHT22;4556;49.150;8.808;2022-07-23T12:51:02;28.50;99.90
9043;DHT22;4556;49.150;8.808;2022-07-23T12:53:31;28.50;99.90
9043;DHT22;4556;49.150;8.808;2022-07-23T12:56:01;28.70;99.90
9043;DHT22;4556;49.150;8.808;2022-07-23T12:58:40;28.80;99.90
9043;DHT22;4556;49.150;8.808;2022-07-23T13:01:08;28.70;99.90
9043;DHT22;4556;49.150;8.808;2022-07-23T13:03:38;28.60;99.90
9043;DHT22;4556;49.150;8.808;2022-07-23T13:06:09;28.50;99.90
9043;DHT22;4556;49.150;8.808;2022-07-23T13:08:38;28.50;99.90
9043;DHT22;4556;49.150;8.808;2022-07-23T13:11:06;28.50;99.90
9043;DHT22;4556;49.150;8.808;2022-07-23T13:13:34;28.50;99.90
9043;DHT22;4556;49.150;8.808;2022-07-23T13:16:02;28.50;99.90
9043;DHT22;4556;49.150;8.808;2022-07-23T13:18:30;28.60;99.90
9043;DHT22;4556;49.150;8.808;2022-07-23T13:20:58;28.50;99.90
9043;DHT22;4556;49.150;8.808;2022-07-23T13:23:28;28.70;99.90
9043;DHT22;4556;49.150;8.808;2022-07-23T13:25:55;28.80;99.90
9043;DHT22;4556;49.150;8.808;2022-07-23T13:28:22;28.80;99.90
9043;DHT22;4556;49.150;8.808;2022-07-23T13:30:50;28.80;99.90
9043;DHT22;4556;49.150;8.808;2022-07-23T13:33:19;28.60;99.90
9043;DHT22;4556;49.150;8.808;2022-07-23T13:35:46;28.50;99.90
9043;DHT22;4556;49.150;8.808;2022-07-23T13:38:13;28.40;99.90
9043;DHT22;4556;49.150;8.808;2022-07-23T13:40:44;28.40;99.90
9043;DHT22;4556;49.150;8.808;2022-07-23T13:43:15;28.60;99.90
9043;DHT22;4556;49.150;8.808;2022-07-23T13:45:42;28.40;99.90
9043;DHT22;4556;49.150;8.808;2022-07-23T13:48:12;28.30;99.90
9043;DHT22;4556;49.150;8.808;2022-07-23T13:50:40;28.40;99.90
9043;DHT22;4556;49.150;8.808;2022-07-23T13:53:10;28.60;99.90
9043;DHT22;4556;49.150;8.808;2022-07-23T13:55:38;28.80;99.90
9043;DHT22;4556;49.150;8.808;2022-07-23T13:58:08;29.00;99.90
9043;DHT22;4556;49.150;8.808;2022-07-23T14:00:37;29.10;99.90
9043;DHT22;4556;49.150;8.808;2022-07-23T14:03:05;29.10;99.90
9043;DHT22;4556;49.150;8.808;2022-07-23T14:05:32;29.20;99.90
9043;DHT22;4556;49.150;8.808;2022-07-23T14:08:00;29.00;99.90
9043;DHT22;4556;49.150;8.808;2022-07-23T14:10:27;29.00;99.90
9043;DHT22;4556;49.150;8.808;2022-07-23T14:12:55;28.80;99.90
9043;DHT22;4556;49.150;8.808;2022-07-23T14:15:25;28.80;99.90
9043;DHT22;4556;49.150;8.808;2022-07-23T14:17:54;28.40;99.90
9043;DHT22;4556;49.150;8.808;2022-07-23T14:20:21;28.10;99.90
9043;DHT22;4556;49.150;8.808;2022-07-23T14:22:49;28.10;99.90
9043;DHT22;4556;49.150;8.808;2022-07-23T14:25:16;27.90;99.90
9043;DHT22;4556;49.150;8.808;2022-07-23T14:27:43;28.00;99.90
9043;DHT22;4556;49.150;8.808;2022-07-23T14:30:12;27.80;99.90
9043;DHT22;4556;49.150;8.808;2022-07-23T14:32:42;27.60;99.90
9043;DHT22;4556;49.150;8.808;2022-07-23T14:35:10;27.60;99.90
9043;DHT22;4556;49.150;8.808;2022-07-23T14:37:38;27.60;99.90
9043;DHT22;4556;49.150;8.808;2022-07-23T14:40:06;27.70;99.90
9043;DHT22;4556;49.150;8.808;2022-07-23T14:42:33;27.70;99.90
9043;DHT22;4556;49.150;8.808;2022-07-23T14:45:00;27.90;99.90
9043;DHT22;4556;49.150;8.808;2022-07-23T14:47:27;27.70;99.90
9043;DHT22;4556;49.150;8.808;2022-07-23T14:49:55;27.60;99.90
9043;DHT22;4556;49.150;8.808;2022-07-23T14:52:22;27.50;99.90
9043;DHT22;4556;49.150;8.808;2022-07-23T14:54:49;27.40;99.90
9043;DHT22;4556;49.150;8.808;2022-07-23T14:57:16;27.30;99.90
9043;DHT22;4556;49.150;8.808;2022-07-23T14:59:43;27.20;99.90
9043;DHT22;4556;49.150;8.808;2022-07-23T15:02:10;27.20;99.90
9043;DHT22;4556;49.150;8.808;2022-07-23T15:04:37;27.20;99.90
9043;DHT22;4556;49.150;8.808;2022-07-23T15:07:06;27.40;99.90
9043;DHT22;4556;49.150;8.808;2022-07-23T15:09:33;27.40;99.90
9043;DHT22;4556;49.150;8.808;2022-07-23T15:12:00;27.30;99.90
9043;DHT22;4556;49.150;8.808;2022-07-23T15:14:27;27.40;99.90
9043;DHT22;4556;49.150;8.808;2022-07-23T15:16:55;27.50;99.90
9043;DHT22;4556;49.150;8.808;2022-07-23T15:19:22;27.40;99.90
9043;DHT22;4556;49.150;8.808;2022-07-23T15:21:49;27.50;99.90
9043;DHT22;4556;49.150;8.808;2022-07-23T15:24:17;26.80;99.90
9043;DHT22;4556;49.150;8.808;2022-07-23T15:26:45;27.50;99.90
9043;DHT22;4556;49.150;8.808;2022-07-23T15:29:12;27.60;99.90
9043;DHT22;4556;49.150;8.808;2022-07-23T15:31:39;27.80;99.90
9043;DHT22;4556;49.150;8.808;2022-07-23T15:34:07;27.50;99.90
9043;DHT22;4556;49.150;8.808;2022-07-23T15:36:34;27.40;99.90
9043;DHT22;4556;49.150;8.808;2022-07-23T15:39:02;27.20;99.90
9043;DHT22;4556;49.150;8.808;2022-07-23T15:41:31;27.00;99.90
9043;DHT22;4556;49.150;8.808;2022-07-23T15:43:58;27.00;99.90
9043;DHT22;4556;49.150;8.808;2022-07-23T15:46:28;27.10;99.90
9043;DHT22;4556;49.150;8.808;2022-07-23T15:48:55;26.90;99.90
9043;DHT22;4556;49.150;8.808;2022-07-23T15:51:22;26.90;99.90
9043;DHT22;4556;49.150;8.808;2022-07-23T15:53:49;26.80;99.90
9043;DHT22;4556;49.150;8.808;2022-07-23T15:56:16;26.90;99.90
9043;DHT22;4556;49.150;8.808;2022-07-23T15:58:45;26.80;99.90
9043;DHT22;4556;49.150;8.808;2022-07-23T16:01:13;27.00;99.90
9043;DHT22;4556;49.150;8.808;2022-07-23T16:03:40;26.80;99.90
9043;DHT22;4556;49.150;8.808;2022-07-23T16:06:07;26.90;99.90
9043;DHT22;4556;49.150;8.808;2022-07-23T16:08:34;26.90;99.90
9043;DHT22;4556;49.150;8.808;2022-07-23T16:11:01;27.00;99.90
9043;DHT22;4556;49.150;8.808;2022-07-23T16:13:28;27.00;99.90
9043;DHT22;4556;49.150;8.808;2022-07-23T16:15:57;27.00;99.90
9043;DHT22;4556;49.150;8.808;2022-07-23T16:18:25;27.00;99.90
9043;DHT22;4556;49.150;8.808;2022-07-23T16:20:53;25.60;99.90